sensor_id;sensor_type;location;lat;lon;timestamp;P1;durP1;ratioP1;P2;durP2;ratioP2
38455;SDS011;24237;50.106;20.014;2022-08-01T00:00:34;15.25;;;9.30;;
38455;SDS011;24237;50.106;20.014;2022-08-01T00:03:00;13.35;;;10.25;;
38455;SDS011;24237;50.106;20.014;2022-08-01T00:05:25;14.57;;;9.70;;
38455;SDS011;24237;50.106;20.014;2022-08-01T00:07:51;17.75;;;10.65;;
38455;SDS011;24237;50.106;20.014;2022-08-01T00:10:17;12.27;;;9.27;;
38455;SDS011;24237;50.106;20.014;2022-08-01T00:12:43;10.32;;;8.48;;
38455;SDS011;24237;50.106;20.014;2022-08-01T00:15:10;15.25;;;9.13;;
38455;SDS011;24237;50.106;20.014;2022-08-01T00:17:40;12.88;;;9.38;;
38455;SDS011;24237;50.106;20.014;2022-08-01T00:20:08;12.77;;;9.20;;
38455;SDS011;24237;50.106;20.014;2022-08-01T00:22:38;18.08;;;10.05;;
38455;SDS011;24237;50.106;20.014;2022-08-01T00:25:04;12.48;;;8.82;;
38455;SDS011;24237;50.106;20.014;2022-08-01T00:27:31;14.40;;;9.27;;
38455;SDS011;24237;50.106;20.014;2022-08-01T00:29:57;12.75;;;9.40;;
38455;SDS011;24237;50.106;20.014;2022-08-01T00:32:23;15.30;;;9.73;;
38455;SDS011;24237;50.106;20.014;2022-08-01T00:34:48;12.90;;;9.43;;
38455;SDS011;24237;50.106;20.014;2022-08-01T00:37:14;13.15;;;9.70;;
38455;SDS011;24237;50.106;20.014;2022-08-01T00:39:40;12.35;;;9.23;;
38455;SDS011;24237;50.106;20.014;2022-08-01T00:42:06;13.25;;;9.85;;
38455;SDS011;24237;50.106;20.014;2022-08-01T00:44:32;12.93;;;10.38;;
38455;SDS011;24237;50.106;20.014;2022-08-01T00:46:58;16.95;;;9.45;;
38455;SDS011;24237;50.106;20.014;2022-08-01T00:49:24;10.77;;;9.40;;
38455;SDS011;24237;50.106;20.014;2022-08-01T00:51:50;15.48;;;10.02;;
38455;SDS011;24237;50.106;20.014;2022-08-01T00:54:15;17.38;;;9.75;;
38455;SDS011;24237;50.106;20.014;2022-08-01T00:56:41;13.85;;;9.68;;
38455;SDS011;24237;50.106;20.014;2022-08-01T00:59:07;13.45;;;10.00;;
38455;SDS011;24237;50.106;20.014;2022-08-01T01:01:34;14.43;;;10.75;;
38455;SDS011;24237;50.106;20.014;2022-08-01T01:03:59;15.50;;;9.73;;
38455;SDS011;24237;50.106;20.014;2022-08-01T01:06:27;13.45;;;9.73;;
38455;SDS011;24237;50.106;20.014;2022-08-01T01:11:44;13.32;;;9.98;;
38455;SDS011;24237;50.106;20.014;2022-08-01T01:17:11;13.15;;;10.48;;
38455;SDS011;24237;50.106;20.014;2022-08-01T01:19:45;14.38;;;10.60;;
38455;SDS011;24237;50.106;20.014;2022-08-01T01:25:14;13.15;;;10.18;;
38455;SDS011;24237;50.106;20.014;2022-08-01T01:30:21;16.33;;;11.73;;
38455;SDS011;24237;50.106;20.014;2022-08-01T01:32:51;14.77;;;11.02;;
38455;SDS011;24237;50.106;20.014;2022-08-01T01:35:22;16.52;;;11.23;;
38455;SDS011;24237;50.106;20.014;2022-08-01T01:37:53;14.82;;;11.80;;
38455;SDS011;24237;50.106;20.014;2022-08-01T01:40:22;16.33;;;11.75;;
38455;SDS011;24237;50.106;20.014;2022-08-01T01:45:16;18.65;;;11.80;;
38455;SDS011;24237;50.106;20.014;2022-08-01T01:47:43;20.35;;;12.30;;
38455;SDS011;24237;50.106;20.014;2022-08-01T01:50:10;19.75;;;12.13;;
38455;SDS011;24237;50.106;20.014;2022-08-01T01:52:37;13.55;;;11.07;;
38455;SDS011;24237;50.106;20.014;2022-08-01T01:55:05;17.38;;;11.60;;
38455;SDS011;24237;50.106;20.014;2022-08-01T01:57:32;16.67;;;10.75;;
38455;SDS011;24237;50.106;20.014;2022-08-01T02:00:03;18.77;;;12.07;;
38455;SDS011;24237;50.106;20.014;2022-08-01T02:02:31;14.95;;;11.07;;
38455;SDS011;24237;50.106;20.014;2022-08-01T02:04:59;19.45;;;11.45;;
38455;SDS011;24237;50.106;20.014;2022-08-01T02:07:25;18.10;;;12.10;;
38455;SDS011;24237;50.106;20.014;2022-08-01T02:09:52;16.15;;;11.27;;
38455;SDS011;24237;50.106;20.014;2022-08-01T02:12:20;15.73;;;11.88;;
38455;SDS011;24237;50.106;20.014;2022-08-01T02:14:49;22.80;;;12.70;;
38455;SDS011;24237;50.106;20.014;2022-08-01T02:17:18;18.95;;;12.38;;
38455;SDS011;24237;50.106;20.014;2022-08-01T02:19:46;14.73;;;11.52;;
38455;SDS011;24237;50.106;20.014;2022-08-01T02:22:37;19.53;;;11.27;;
38455;SDS011;24237;50.106;20.014;2022-08-01T02:25:18;16.90;;;12.55;;
38455;SDS011;24237;50.106;20.014;2022-08-01T02:28:04;18.00;;;10.98;;
38455;SDS011;24237;50.106;20.014;2022-08-01T02:30:33;15.80;;;11.95;;
38455;SDS011;24237;50.106;20.014;2022-08-01T02:33:03;18.17;;;12.38;;
38455;SDS011;24237;50.106;20.014;2022-08-01T02:35:33;20.95;;;11.75;;
38455;SDS011;24237;50.106;20.014;2022-08-01T02:38:01;18.08;;;11.55;;
38455;SDS011;24237;50.106;20.014;2022-08-01T02:40:32;18.25;;;11.45;;
38455;SDS011;24237;50.106;20.014;2022-08-01T02:45:25;20.40;;;12.52;;
38455;SDS011;24237;50.106;20.014;2022-08-01T02:47:53;17.50;;;12.70;;
38455;SDS011;24237;50.106;20.014;2022-08-01T02:50:24;21.23;;;12.93;;
38455;SDS011;24237;50.106;20.014;2022-08-01T02:52:52;18.83;;;12.55;;
38455;SDS011;24237;50.106;20.014;2022-08-01T02:57:45;16.67;;;11.82;;
38455;SDS011;24237;50.106;20.014;2022-08-01T03:00:14;20.90;;;12.88;;
38455;SDS011;24237;50.106;20.014;2022-08-01T03:02:41;22.83;;;14.30;;
38455;SDS011;24237;50.106;20.014;2022-08-01T03:05:09;22.05;;;14.80;;
38455;SDS011;24237;50.106;20.014;2022-08-01T03:07:39;20.38;;;12.98;;
38455;SDS011;24237;50.106;20.014;2022-08-01T03:10:06;21.88;;;14.18;;
38455;SDS011;24237;50.106;20.014;2022-08-01T03:12:33;20.55;;;13.10;;
38455;SDS011;24237;50.106;20.014;2022-08-01T03:14:59;23.40;;;14.00;;
38455;SDS011;24237;50.106;20.014;2022-08-01T03:17:29;20.25;;;14.02;;
38455;SDS011;24237;50.106;20.014;2022-08-01T03:19:57;20.33;;;13.37;;
38455;SDS011;24237;50.106;20.014;2022-08-01T03:22:25;18.55;;;13.75;;
38455;SDS011;24237;50.106;20.014;2022-08-01T03:24:53;21.50;;;13.18;;
38455;SDS011;24237;50.106;20.014;2022-08-01T03:27:21;24.15;;;13.82;;
38455;SDS011;24237;50.106;20.014;2022-08-01T03:29:49;20.83;;;14.48;;
38455;SDS011;24237;50.106;20.014;2022-08-01T03:32:19;21.30;;;13.73;;
38455;SDS011;24237;50.106;20.014;2022-08-01T03:34:47;23.27;;;13.82;;
38455;SDS011;24237;50.106;20.014;2022-08-01T03:39:47;19.10;;;13.52;;
38455;SDS011;24237;50.106;20.014;2022-08-01T03:42:18;17.92;;;13.05;;
38455;SDS011;24237;50.106;20.014;2022-08-01T03:44:49;18.52;;;12.05;;
38455;SDS011;24237;50.106;20.014;2022-08-01T03:47:19;19.52;;;12.85;;
38455;SDS011;24237;50.106;20.014;2022-08-01T03:49:49;20.70;;;13.57;;
38455;SDS011;24237;50.106;20.014;2022-08-01T03:52:17;19.27;;;13.23;;
38455;SDS011;24237;50.106;20.014;2022-08-01T03:54:45;27.50;;;14.68;;
38455;SDS011;24237;50.106;20.014;2022-08-01T03:57:12;19.58;;;14.05;;
38455;SDS011;24237;50.106;20.014;2022-08-01T03:59:39;21.30;;;14.40;;
38455;SDS011;24237;50.106;20.014;2022-08-01T04:02:06;20.13;;;14.70;;
38455;SDS011;24237;50.106;20.014;2022-08-01T04:04:34;29.67;;;16.75;;
38455;SDS011;24237;50.106;20.014;2022-08-01T04:07:01;28.77;;;16.80;;
38455;SDS011;24237;50.106;20.014;2022-08-01T04:09:33;27.52;;;16.55;;
38455;SDS011;24237;50.106;20.014;2022-08-01T04:11:59;28.17;;;17.23;;
38455;SDS011;24237;50.106;20.014;2022-08-01T04:14:26;26.65;;;16.48;;
38455;SDS011;24237;50.106;20.014;2022-08-01T04:19:18;28.20;;;17.85;;
38455;SDS011;24237;50.106;20.014;2022-08-01T04:21:47;29.83;;;17.90;;
38455;SDS011;24237;50.106;20.014;2022-08-01T04:24:14;27.77;;;17.75;;
38455;SDS011;24237;50.106;20.014;2022-08-01T04:26:43;28.23;;;17.90;;
38455;SDS011;24237;50.106;20.014;2022-08-01T04:29:11;27.38;;;17.27;;
38455;SDS011;24237;50.106;20.014;2022-08-01T04:31:39;31.83;;;17.85;;
38455;SDS011;24237;50.106;20.014;2022-08-01T04:34:08;38.90;;;18.23;;
38455;SDS011;24237;50.106;20.014;2022-08-01T04:36:36;28.20;;;17.77;;
38455;SDS011;24237;50.106;20.014;2022-08-01T04:39:03;28.30;;;17.05;;
38455;SDS011;24237;50.106;20.014;2022-08-01T04:43:57;34.28;;;17.77;;
38455;SDS011;24237;50.106;20.014;2022-08-01T04:46:24;29.13;;;19.50;;
38455;SDS011;24237;50.106;20.014;2022-08-01T04:48:50;30.60;;;19.55;;
38455;SDS011;24237;50.106;20.014;2022-08-01T04:51:16;32.45;;;19.30;;
38455;SDS011;24237;50.106;20.014;2022-08-01T04:53:45;31.27;;;20.35;;
38455;SDS011;24237;50.106;20.014;2022-08-01T04:56:11;34.60;;;18.83;;
38455;SDS011;24237;50.106;20.014;2022-08-01T04:58:40;29.65;;;19.17;;
38455;SDS011;24237;50.106;20.014;2022-08-01T05:01:06;32.60;;;18.95;;
38455;SDS011;24237;50.106;20.014;2022-08-01T05:03:32;28.98;;;18.75;;
38455;SDS011;24237;50.106;20.014;2022-08-01T05:05:58;36.28;;;19.48;;
38455;SDS011;24237;50.106;20.014;2022-08-01T05:08:24;31.42;;;19.00;;
38455;SDS011;24237;50.106;20.014;2022-08-01T05:10:50;35.00;;;19.75;;
38455;SDS011;24237;50.106;20.014;2022-08-01T05:13:15;32.72;;;17.83;;
38455;SDS011;24237;50.106;20.014;2022-08-01T05:15:41;32.65;;;19.23;;
38455;SDS011;24237;50.106;20.014;2022-08-01T05:18:07;32.58;;;18.80;;
38455;SDS011;24237;50.106;20.014;2022-08-01T05:20:32;29.90;;;17.95;;
38455;SDS011;24237;50.106;20.014;2022-08-01T05:22:58;27.35;;;18.90;;
38455;SDS011;24237;50.106;20.014;2022-08-01T05:25:24;29.90;;;18.38;;
38455;SDS011;24237;50.106;20.014;2022-08-01T05:27:49;28.92;;;18.67;;
38455;SDS011;24237;50.106;20.014;2022-08-01T05:30:15;35.63;;;17.83;;
38455;SDS011;24237;50.106;20.014;2022-08-01T05:32:41;30.02;;;19.75;;
38455;SDS011;24237;50.106;20.014;2022-08-01T05:35:07;28.98;;;18.83;;
38455;SDS011;24237;50.106;20.014;2022-08-01T05:37:33;32.22;;;18.58;;
38455;SDS011;24237;50.106;20.014;2022-08-01T05:39:59;27.90;;;17.80;;
38455;SDS011;24237;50.106;20.014;2022-08-01T05:42:25;35.38;;;19.15;;
38455;SDS011;24237;50.106;20.014;2022-08-01T05:44:53;29.83;;;17.33;;
38455;SDS011;24237;50.106;20.014;2022-08-01T05:47:19;27.45;;;17.27;;
38455;SDS011;24237;50.106;20.014;2022-08-01T05:49:45;26.98;;;17.38;;
38455;SDS011;24237;50.106;20.014;2022-08-01T05:52:13;31.33;;;18.63;;
38455;SDS011;24237;50.106;20.014;2022-08-01T05:54:42;27.30;;;17.70;;
38455;SDS011;24237;50.106;20.014;2022-08-01T05:57:08;30.05;;;17.48;;
38455;SDS011;24237;50.106;20.014;2022-08-01T05:59:34;24.33;;;14.75;;
38455;SDS011;24237;50.106;20.014;2022-08-01T06:02:00;27.55;;;16.92;;
38455;SDS011;24237;50.106;20.014;2022-08-01T06:04:25;31.17;;;16.83;;
38455;SDS011;24237;50.106;20.014;2022-08-01T06:06:51;28.25;;;16.10;;
38455;SDS011;24237;50.106;20.014;2022-08-01T06:09:17;25.15;;;14.52;;
38455;SDS011;24237;50.106;20.014;2022-08-01T06:11:43;24.00;;;14.30;;
38455;SDS011;24237;50.106;20.014;2022-08-01T06:14:08;22.00;;;13.60;;
38455;SDS011;24237;50.106;20.014;2022-08-01T06:16:34;24.48;;;13.80;;
38455;SDS011;24237;50.106;20.014;2022-08-01T06:19:00;23.38;;;14.60;;
38455;SDS011;24237;50.106;20.014;2022-08-01T06:21:25;23.58;;;13.10;;
38455;SDS011;24237;50.106;20.014;2022-08-01T06:23:57;23.65;;;14.43;;
38455;SDS011;24237;50.106;20.014;2022-08-01T06:26:23;20.98;;;13.13;;
38455;SDS011;24237;50.106;20.014;2022-08-01T06:28:48;23.45;;;14.00;;
38455;SDS011;24237;50.106;20.014;2022-08-01T06:31:20;24.40;;;12.77;;
38455;SDS011;24237;50.106;20.014;2022-08-01T06:33:59;20.60;;;12.43;;
38455;SDS011;24237;50.106;20.014;2022-08-01T06:36:25;20.02;;;11.85;;
38455;SDS011;24237;50.106;20.014;2022-08-01T06:38:50;18.85;;;11.68;;
38455;SDS011;24237;50.106;20.014;2022-08-01T06:41:25;18.08;;;11.27;;
38455;SDS011;24237;50.106;20.014;2022-08-01T06:43:52;26.95;;;11.35;;
38455;SDS011;24237;50.106;20.014;2022-08-01T06:46:18;16.63;;;9.85;;
38455;SDS011;24237;50.106;20.014;2022-08-01T06:48:59;13.45;;;9.10;;
38455;SDS011;24237;50.106;20.014;2022-08-01T06:51:24;20.90;;;9.50;;
38455;SDS011;24237;50.106;20.014;2022-08-01T06:53:50;12.30;;;8.38;;
38455;SDS011;24237;50.106;20.014;2022-08-01T06:56:16;11.10;;;7.45;;
38455;SDS011;24237;50.106;20.014;2022-08-01T06:58:59;12.93;;;7.32;;
38455;SDS011;24237;50.106;20.014;2022-08-01T07:01:26;15.52;;;8.48;;
38455;SDS011;24237;50.106;20.014;2022-08-01T07:03:55;14.57;;;8.60;;
38455;SDS011;24237;50.106;20.014;2022-08-01T07:06:22;11.40;;;7.57;;
38455;SDS011;24237;50.106;20.014;2022-08-01T07:11:14;18.67;;;6.97;;
38455;SDS011;24237;50.106;20.014;2022-08-01T07:13:40;12.95;;;6.95;;
38455;SDS011;24237;50.106;20.014;2022-08-01T07:16:09;11.80;;;6.57;;
38455;SDS011;24237;50.106;20.014;2022-08-01T07:18:34;11.57;;;6.55;;
38455;SDS011;24237;50.106;20.014;2022-08-01T07:21:00;10.45;;;5.85;;
38455;SDS011;24237;50.106;20.014;2022-08-01T07:23:25;14.68;;;6.22;;
38455;SDS011;24237;50.106;20.014;2022-08-01T07:25:51;15.00;;;5.93;;
38455;SDS011;24237;50.106;20.014;2022-08-01T07:28:20;13.60;;;6.03;;
38455;SDS011;24237;50.106;20.014;2022-08-01T07:30:46;14.02;;;5.60;;
38455;SDS011;24237;50.106;20.014;2022-08-01T07:33:20;9.00;;;5.28;;
38455;SDS011;24237;50.106;20.014;2022-08-01T07:35:47;7.83;;;5.07;;
38455;SDS011;24237;50.106;20.014;2022-08-01T07:38:13;9.95;;;5.05;;
38455;SDS011;24237;50.106;20.014;2022-08-01T07:40:44;12.35;;;5.00;;
38455;SDS011;24237;50.106;20.014;2022-08-01T07:43:10;7.28;;;5.22;;
38455;SDS011;24237;50.106;20.014;2022-08-01T07:45:36;8.95;;;4.72;;
38455;SDS011;24237;50.106;20.014;2022-08-01T07:48:03;9.35;;;4.60;;
38455;SDS011;24237;50.106;20.014;2022-08-01T07:52:57;6.40;;;3.87;;
38455;SDS011;24237;50.106;20.014;2022-08-01T07:55:41;5.97;;;3.17;;
38455;SDS011;24237;50.106;20.014;2022-08-01T07:58:07;10.63;;;3.88;;
38455;SDS011;24237;50.106;20.014;2022-08-01T08:00:35;12.13;;;4.35;;
38455;SDS011;24237;50.106;20.014;2022-08-01T08:03:01;4.70;;;2.80;;
38455;SDS011;24237;50.106;20.014;2022-08-01T08:05:30;8.75;;;2.67;;
38455;SDS011;24237;50.106;20.014;2022-08-01T08:07:57;5.35;;;2.47;;
38455;SDS011;24237;50.106;20.014;2022-08-01T08:10:23;4.93;;;2.70;;
38455;SDS011;24237;50.106;20.014;2022-08-01T08:12:52;4.88;;;2.20;;
38455;SDS011;24237;50.106;20.014;2022-08-01T08:15:17;3.75;;;2.92;;
38455;SDS011;24237;50.106;20.014;2022-08-01T08:17:43;6.22;;;2.58;;
38455;SDS011;24237;50.106;20.014;2022-08-01T08:20:08;10.52;;;2.90;;
38455;SDS011;24237;50.106;20.014;2022-08-01T08:22:53;4.28;;;2.53;;
38455;SDS011;24237;50.106;20.014;2022-08-01T08:25:40;3.95;;;2.15;;
38455;SDS011;24237;50.106;20.014;2022-08-01T08:28:09;6.13;;;2.40;;
38455;SDS011;24237;50.106;20.014;2022-08-01T08:30:38;10.07;;;2.63;;
38455;SDS011;24237;50.106;20.014;2022-08-01T08:33:03;3.72;;;2.35;;
38455;SDS011;24237;50.106;20.014;2022-08-01T08:35:29;6.57;;;2.22;;
38455;SDS011;24237;50.106;20.014;2022-08-01T08:37:54;7.53;;;3.20;;
38455;SDS011;24237;50.106;20.014;2022-08-01T08:40:20;19.42;;;3.08;;
38455;SDS011;24237;50.106;20.014;2022-08-01T08:42:54;5.68;;;2.47;;
38455;SDS011;24237;50.106;20.014;2022-08-01T08:45:22;6.93;;;2.40;;
38455;SDS011;24237;50.106;20.014;2022-08-01T08:47:48;6.47;;;2.28;;
38455;SDS011;24237;50.106;20.014;2022-08-01T08:50:15;9.88;;;4.63;;
38455;SDS011;24237;50.106;20.014;2022-08-01T08:52:41;8.50;;;2.70;;
38455;SDS011;24237;50.106;20.014;2022-08-01T08:55:09;6.38;;;2.38;;
38455;SDS011;24237;50.106;20.014;2022-08-01T08:57:39;6.22;;;1.83;;
38455;SDS011;24237;50.106;20.014;2022-08-01T09:00:07;4.97;;;1.85;;
38455;SDS011;24237;50.106;20.014;2022-08-01T09:02:35;14.70;;;2.42;;
38455;SDS011;24237;50.106;20.014;2022-08-01T09:05:01;7.10;;;1.98;;
38455;SDS011;24237;50.106;20.014;2022-08-01T09:07:27;3.40;;;1.65;;
38455;SDS011;24237;50.106;20.014;2022-08-01T09:09:53;4.15;;;2.25;;
38455;SDS011;24237;50.106;20.014;2022-08-01T09:12:18;5.43;;;2.45;;
38455;SDS011;24237;50.106;20.014;2022-08-01T09:14:45;5.50;;;2.07;;
38455;SDS011;24237;50.106;20.014;2022-08-01T09:17:12;9.75;;;2.20;;
38455;SDS011;24237;50.106;20.014;2022-08-01T09:19:42;9.10;;;1.92;;
38455;SDS011;24237;50.106;20.014;2022-08-01T09:22:09;17.88;;;9.48;;
38455;SDS011;24237;50.106;20.014;2022-08-01T09:24:43;4.15;;;2.40;;
38455;SDS011;24237;50.106;20.014;2022-08-01T09:27:32;9.80;;;2.40;;
38455;SDS011;24237;50.106;20.014;2022-08-01T09:35:31;4.15;;;1.88;;
38455;SDS011;24237;50.106;20.014;2022-08-01T09:40:44;7.80;;;3.15;;
38455;SDS011;24237;50.106;20.014;2022-08-01T09:43:14;11.30;;;2.75;;
38455;SDS011;24237;50.106;20.014;2022-08-01T09:49:43;8.50;;;2.42;;
38455;SDS011;24237;50.106;20.014;2022-08-01T09:54:40;4.70;;;2.17;;
38455;SDS011;24237;50.106;20.014;2022-08-01T09:57:08;5.43;;;2.10;;
38455;SDS011;24237;50.106;20.014;2022-08-01T09:59:37;5.07;;;2.22;;
38455;SDS011;24237;50.106;20.014;2022-08-01T10:02:07;4.65;;;2.35;;
38455;SDS011;24237;50.106;20.014;2022-08-01T10:04:45;3.80;;;2.08;;
38455;SDS011;24237;50.106;20.014;2022-08-01T10:07:14;3.88;;;2.10;;
38455;SDS011;24237;50.106;20.014;2022-08-01T10:09:43;11.15;;;2.78;;
38455;SDS011;24237;50.106;20.014;2022-08-01T10:12:10;5.18;;;2.10;;
38455;SDS011;24237;50.106;20.014;2022-08-01T10:14:38;3.65;;;2.00;;
38455;SDS011;24237;50.106;20.014;2022-08-01T10:17:08;6.75;;;2.10;;
38455;SDS011;24237;50.106;20.014;2022-08-01T10:19:39;10.27;;;2.42;;
38455;SDS011;24237;50.106;20.014;2022-08-01T10:22:18;5.68;;;2.20;;
38455;SDS011;24237;50.106;20.014;2022-08-01T10:24:45;4.10;;;2.03;;
38455;SDS011;24237;50.106;20.014;2022-08-01T10:27:14;7.55;;;2.13;;
38455;SDS011;24237;50.106;20.014;2022-08-01T10:29:50;5.43;;;1.88;;
38455;SDS011;24237;50.106;20.014;2022-08-01T10:32:20;4.97;;;2.00;;
38455;SDS011;24237;50.106;20.014;2022-08-01T10:34:46;4.85;;;1.85;;
38455;SDS011;24237;50.106;20.014;2022-08-01T10:37:13;4.15;;;1.83;;
38455;SDS011;24237;50.106;20.014;2022-08-01T10:39:40;8.00;;;2.08;;
38455;SDS011;24237;50.106;20.014;2022-08-01T10:42:06;2.47;;;1.65;;
38455;SDS011;24237;50.106;20.014;2022-08-01T10:44:35;4.07;;;2.08;;
38455;SDS011;24237;50.106;20.014;2022-08-01T10:47:09;13.77;;;2.85;;
38455;SDS011;24237;50.106;20.014;2022-08-01T10:49:39;4.45;;;2.38;;
38455;SDS011;24237;50.106;20.014;2022-08-01T10:52:16;5.65;;;3.25;;
38455;SDS011;24237;50.106;20.014;2022-08-01T10:54:41;7.05;;;2.03;;
38455;SDS011;24237;50.106;20.014;2022-08-01T10:57:07;3.00;;;1.73;;
38455;SDS011;24237;50.106;20.014;2022-08-01T10:59:33;3.55;;;1.95;;
38455;SDS011;24237;50.106;20.014;2022-08-01T11:02:04;5.00;;;1.80;;
38455;SDS011;24237;50.106;20.014;2022-08-01T11:04:32;8.45;;;1.83;;
38455;SDS011;24237;50.106;20.014;2022-08-01T11:07:05;7.43;;;2.05;;
38455;SDS011;24237;50.106;20.014;2022-08-01T11:12:08;2.58;;;1.85;;
38455;SDS011;24237;50.106;20.014;2022-08-01T11:17:39;2.53;;;1.83;;
38455;SDS011;24237;50.106;20.014;2022-08-01T11:30:41;6.20;;;2.00;;
38455;SDS011;24237;50.106;20.014;2022-08-01T11:33:06;6.00;;;1.73;;
38455;SDS011;24237;50.106;20.014;2022-08-01T11:35:32;4.50;;;2.10;;
38455;SDS011;24237;50.106;20.014;2022-08-01T11:40:43;7.72;;;1.90;;
38455;SDS011;24237;50.106;20.014;2022-08-01T11:45:51;7.82;;;1.90;;
38455;SDS011;24237;50.106;20.014;2022-08-01T11:48:23;2.65;;;1.42;;
38455;SDS011;24237;50.106;20.014;2022-08-01T11:50:51;4.18;;;2.05;;
38455;SDS011;24237;50.106;20.014;2022-08-01T11:53:18;8.85;;;1.98;;
38455;SDS011;24237;50.106;20.014;2022-08-01T11:55:51;4.38;;;2.03;;
38455;SDS011;24237;50.106;20.014;2022-08-01T11:58:22;4.32;;;2.13;;
38455;SDS011;24237;50.106;20.014;2022-08-01T12:00:51;5.07;;;1.70;;
38455;SDS011;24237;50.106;20.014;2022-08-01T12:03:23;6.15;;;2.42;;
38455;SDS011;24237;50.106;20.014;2022-08-01T12:05:53;5.10;;;2.30;;
38455;SDS011;24237;50.106;20.014;2022-08-01T12:08:29;3.33;;;2.00;;
38455;SDS011;24237;50.106;20.014;2022-08-01T12:10:58;6.38;;;2.15;;
38455;SDS011;24237;50.106;20.014;2022-08-01T12:13:25;4.45;;;2.00;;
38455;SDS011;24237;50.106;20.014;2022-08-01T12:15:51;6.63;;;2.38;;
38455;SDS011;24237;50.106;20.014;2022-08-01T12:18:17;6.25;;;2.35;;
38455;SDS011;24237;50.106;20.014;2022-08-01T12:20:43;11.00;;;2.50;;
38455;SDS011;24237;50.106;20.014;2022-08-01T12:23:13;4.50;;;2.45;;
38455;SDS011;24237;50.106;20.014;2022-08-01T12:25:40;6.22;;;2.00;;
38455;SDS011;24237;50.106;20.014;2022-08-01T12:28:09;4.03;;;2.20;;
38455;SDS011;24237;50.106;20.014;2022-08-01T12:33:04;4.15;;;2.25;;
38455;SDS011;24237;50.106;20.014;2022-08-01T12:35:35;5.88;;;2.10;;
38455;SDS011;24237;50.106;20.014;2022-08-01T12:38:03;7.50;;;2.20;;
38455;SDS011;24237;50.106;20.014;2022-08-01T12:40:35;4.72;;;2.20;;
38455;SDS011;24237;50.106;20.014;2022-08-01T12:43:05;6.82;;;2.10;;
38455;SDS011;24237;50.106;20.014;2022-08-01T12:47:59;3.55;;;2.17;;
38455;SDS011;24237;50.106;20.014;2022-08-01T12:50:26;4.43;;;2.10;;
38455;SDS011;24237;50.106;20.014;2022-08-01T12:52:54;10.57;;;3.03;;
38455;SDS011;24237;50.106;20.014;2022-08-01T12:55:22;4.88;;;2.42;;
38455;SDS011;24237;50.106;20.014;2022-08-01T12:57:59;8.18;;;2.90;;
38455;SDS011;24237;50.106;20.014;2022-08-01T13:00:32;7.85;;;2.78;;
38455;SDS011;24237;50.106;20.014;2022-08-01T13:03:03;5.72;;;1.83;;
38455;SDS011;24237;50.106;20.014;2022-08-01T13:05:43;7.30;;;2.10;;
38455;SDS011;24237;50.106;20.014;2022-08-01T13:10:42;24.27;;;13.43;;
38455;SDS011;24237;50.106;20.014;2022-08-01T13:13:09;3.60;;;2.27;;
38455;SDS011;24237;50.106;20.014;2022-08-01T13:15:36;7.40;;;2.20;;
38455;SDS011;24237;50.106;20.014;2022-08-01T13:24:03;4.13;;;2.30;;
38455;SDS011;24237;50.106;20.014;2022-08-01T13:26:50;5.80;;;2.72;;
38455;SDS011;24237;50.106;20.014;2022-08-01T13:29:21;6.68;;;2.38;;
38455;SDS011;24237;50.106;20.014;2022-08-01T13:31:54;5.80;;;2.85;;
38455;SDS011;24237;50.106;20.014;2022-08-01T13:34:29;5.25;;;2.50;;
38455;SDS011;24237;50.106;20.014;2022-08-01T13:36:58;7.43;;;2.08;;
38455;SDS011;24237;50.106;20.014;2022-08-01T13:39:24;2.47;;;2.00;;
38455;SDS011;24237;50.106;20.014;2022-08-01T13:42:08;3.88;;;2.67;;
38455;SDS011;24237;50.106;20.014;2022-08-01T13:44:35;6.00;;;2.40;;
38455;SDS011;24237;50.106;20.014;2022-08-01T13:47:01;8.15;;;2.70;;
38455;SDS011;24237;50.106;20.014;2022-08-01T13:49:28;5.93;;;2.00;;
38455;SDS011;24237;50.106;20.014;2022-08-01T13:51:54;4.25;;;2.60;;
38455;SDS011;24237;50.106;20.014;2022-08-01T13:54:19;5.47;;;2.88;;
38455;SDS011;24237;50.106;20.014;2022-08-01T13:56:45;6.93;;;2.40;;
38455;SDS011;24237;50.106;20.014;2022-08-01T13:59:11;3.65;;;2.25;;
38455;SDS011;24237;50.106;20.014;2022-08-01T14:01:40;6.50;;;2.50;;
38455;SDS011;24237;50.106;20.014;2022-08-01T14:04:06;3.40;;;2.25;;
38455;SDS011;24237;50.106;20.014;2022-08-01T14:06:32;4.43;;;2.88;;
38455;SDS011;24237;50.106;20.014;2022-08-01T14:08:58;4.63;;;2.22;;
38455;SDS011;24237;50.106;20.014;2022-08-01T14:11:23;3.30;;;2.35;;
38455;SDS011;24237;50.106;20.014;2022-08-01T14:13:49;4.03;;;2.05;;
38455;SDS011;24237;50.106;20.014;2022-08-01T14:16:15;4.68;;;2.30;;
38455;SDS011;24237;50.106;20.014;2022-08-01T14:18:41;6.97;;;2.70;;
38455;SDS011;24237;50.106;20.014;2022-08-01T14:21:07;4.32;;;2.50;;
38455;SDS011;24237;50.106;20.014;2022-08-01T14:23:32;5.05;;;2.28;;
38455;SDS011;24237;50.106;20.014;2022-08-01T14:25:58;6.55;;;2.30;;
38455;SDS011;24237;50.106;20.014;2022-08-01T14:28:23;6.75;;;2.30;;
38455;SDS011;24237;50.106;20.014;2022-08-01T14:30:50;3.50;;;2.33;;
38455;SDS011;24237;50.106;20.014;2022-08-01T14:33:15;4.60;;;2.67;;
38455;SDS011;24237;50.106;20.014;2022-08-01T14:35:41;5.88;;;2.88;;
38455;SDS011;24237;50.106;20.014;2022-08-01T14:38:07;6.65;;;3.17;;
38455;SDS011;24237;50.106;20.014;2022-08-01T14:40:33;8.05;;;2.58;;
38455;SDS011;24237;50.106;20.014;2022-08-01T14:42:59;7.90;;;2.93;;
38455;SDS011;24237;50.106;20.014;2022-08-01T14:45:28;5.77;;;2.83;;
38455;SDS011;24237;50.106;20.014;2022-08-01T14:47:54;7.18;;;3.13;;
38455;SDS011;24237;50.106;20.014;2022-08-01T14:50:19;12.68;;;2.97;;
38455;SDS011;24237;50.106;20.014;2022-08-01T14:52:45;8.20;;;2.83;;
38455;SDS011;24237;50.106;20.014;2022-08-01T14:55:11;6.68;;;2.97;;
38455;SDS011;24237;50.106;20.014;2022-08-01T14:57:37;5.70;;;2.90;;
38455;SDS011;24237;50.106;20.014;2022-08-01T15:00:04;5.43;;;2.90;;
38455;SDS011;24237;50.106;20.014;2022-08-01T15:02:31;4.75;;;2.38;;
38455;SDS011;24237;50.106;20.014;2022-08-01T15:04:57;5.85;;;2.55;;
38455;SDS011;24237;50.106;20.014;2022-08-01T15:07:23;3.63;;;2.85;;
38455;SDS011;24237;50.106;20.014;2022-08-01T15:09:48;4.47;;;2.67;;
38455;SDS011;24237;50.106;20.014;2022-08-01T15:12:14;8.55;;;2.97;;
38455;SDS011;24237;50.106;20.014;2022-08-01T15:14:40;7.28;;;2.33;;
38455;SDS011;24237;50.106;20.014;2022-08-01T15:17:24;8.45;;;2.75;;
38455;SDS011;24237;50.106;20.014;2022-08-01T15:19:57;3.83;;;2.88;;
38455;SDS011;24237;50.106;20.014;2022-08-01T15:22:27;5.30;;;4.00;;
38455;SDS011;24237;50.106;20.014;2022-08-01T15:24:54;6.00;;;2.93;;
38455;SDS011;24237;50.106;20.014;2022-08-01T15:27:21;4.47;;;2.90;;
38455;SDS011;24237;50.106;20.014;2022-08-01T15:29:47;3.80;;;2.55;;
38455;SDS011;24237;50.106;20.014;2022-08-01T15:32:13;6.13;;;2.88;;
38455;SDS011;24237;50.106;20.014;2022-08-01T15:34:39;4.35;;;3.00;;
38455;SDS011;24237;50.106;20.014;2022-08-01T15:37:06;9.43;;;3.83;;
38455;SDS011;24237;50.106;20.014;2022-08-01T15:39:42;8.52;;;3.03;;
38455;SDS011;24237;50.106;20.014;2022-08-01T15:42:09;3.60;;;2.85;;
38455;SDS011;24237;50.106;20.014;2022-08-01T15:44:36;4.70;;;3.40;;
38455;SDS011;24237;50.106;20.014;2022-08-01T15:47:03;6.93;;;3.50;;
38455;SDS011;24237;50.106;20.014;2022-08-01T15:49:29;7.05;;;3.58;;